Time;durP1;ratioP1;P1;durP2;ratioP2;P2;SDS_P1;SDS_P2;PMS_P1;PMS_P2;Temp;Humidity;BMP_temperature;BMP_pressure;BME280_temperature;BME280_humidity;BME280_pressure;Samples;Min_cycle;Max_cycle;Signal;HPM_P1;HPM_P2
2023/08/01 00:02:06;;;;;;;7.95;2.78;;;;;;;19.45;100.00;93979.88;5057620;28;20037;-89
2023/08/01 00:04:31;;;;;;;10.30;2.90;;;;;;;19.42;100.00;93975.25;5056525;28;20032;-89
2023/08/01 00:06:56;;;;;;;5.45;2.63;;;;;;;19.25;100.00;93977.03;5056285;28;20090;-87
2023/08/01 00:09:22;;;;;;;4.20;2.35;;;;;;;18.92;100.00;93964.56;5056019;28;20033;-87
2023/08/01 00:11:47;;;;;;;4.55;2.85;;;;;;;18.57;100.00;93959.63;5057365;28;20457;-88
2023/08/01 00:14:32;;;;;;;5.32;3.13;;;;;;;18.44;100.00;93962.25;5056099;28;20127;-88
2023/08/01 00:16:58;;;;;;;5.32;2.65;;;;;;;18.70;100.00;93963.88;5057200;28;20354;-87
2023/08/01 00:19:23;;;;;;;6.90;3.35;;;;;;;18.45;100.00;93957.72;5057147;28;20037;-88
2023/08/01 00:21:48;;;;;;;5.97;3.20;;;;;;;18.44;100.00;93954.28;5056398;28;20025;-87
2023/08/01 00:24:14;;;;;;;8.40;3.35;;;;;;;17.88;100.00;93955.34;5056490;28;20123;-87
2023/08/01 00:26:39;;;;;;;5.60;2.80;;;;;;;17.58;100.00;93952.75;5056098;28;20044;-88
2023/08/01 00:29:05;;;;;;;3.47;2.72;;;;;;;17.50;100.00;93935.03;5054552;28;20132;-87
2023/08/01 00:31:30;;;;;;;5.60;3.10;;;;;;;17.49;100.00;93936.13;5036726;28;20464;-87
2023/08/01 00:33:56;;;;;;;5.00;3.20;;;;;;;17.72;100.00;93938.50;5039321;28;20423;-87
2023/08/01 00:36:21;;;;;;;5.65;3.13;;;;;;;17.65;100.00;93939.78;5060192;28;20438;-87
2023/08/01 00:39:05;;;;;;;5.40;2.80;;;;;;;17.76;100.00;93932.22;5056212;28;20040;-88
2023/08/01 00:41:31;;;;;;;4.07;2.42;;;;;;;17.72;100.00;93933.19;5055407;28;20037;-88
2023/08/01 00:43:56;;;;;;;5.65;3.00;;;;;;;17.73;100.00;93934.75;5055681;28;20037;-88
2023/08/01 00:46:21;;;;;;;4.13;2.65;;;;;;;17.79;100.00;93928.16;5038379;28;20446;-88
2023/08/01 00:48:47;;;;;;;6.70;2.83;;;;;;;17.61;100.00;93928.28;5038541;28;20029;-87
2023/08/01 00:53:57;;;;;;;10.07;3.20;;;;;;;17.78;100.00;93926.59;5055685;28;20043;-87
2023/08/01 00:56:23;;;;;;;4.95;2.55;;;;;;;18.00;100.00;93912.22;5057062;28;20056;-88
2023/08/01 00:59:07;;;;;;;5.20;2.55;;;;;;;18.15;100.00;93905.59;5056487;28;20067;-88
2023/08/01 01:01:33;;;;;;;5.18;2.78;;;;;;;18.06;100.00;93910.19;5040156;28;20033;-88
2023/08/01 01:03:58;;;;;;;3.58;2.38;;;;;;;18.02;100.00;93899.47;5036770;28;20040;-88
2023/08/01 01:06:50;;;;;;;3.13;2.00;;;;;;;18.09;100.00;93902.38;5036664;28;20037;-88
2023/08/01 01:09:17;;;;;;;4.72;2.40;;;;;;;18.06;100.00;93895.06;5034775;28;20118;-87
2023/08/01 01:11:43;;;;;;;7.03;2.42;;;;;;;17.85;100.00;93899.56;5019278;28;20030;-87
2023/08/01 01:14:12;;;;;;;7.85;2.20;;;;;;;17.49;100.00;93888.47;5035472;28;20033;-87
2023/08/01 01:16:56;;;;;;;4.43;2.42;;;;;;;17.67;100.00;93887.25;5037041;28;20466;-87
2023/08/01 01:19:40;;;;;;;5.50;2.10;;;;;;;17.76;100.00;93889.84;5035375;28;20481;-88
2023/08/01 01:24:52;;;;;;;6.32;2.35;;;;;;;17.64;100.00;93885.25;5035520;28;20064;-87
2023/08/01 01:27:18;;;;;;;3.83;2.30;;;;;;;17.59;100.00;93884.69;5019038;28;20040;-88
2023/08/01 01:29:43;;;;;;;5.75;2.50;;;;;;;17.45;100.00;93874.34;5036703;28;20033;-88
2023/08/01 01:32:09;;;;;;;4.20;2.45;;;;;;;17.56;100.00;93872.84;5035446;28;20033;-87
2023/08/01 01:34:54;;;;;;;4.93;2.70;;;;;;;17.68;100.00;93864.19;5035442;28;20037;-87
2023/08/01 01:37:37;;;;;;;5.15;2.60;;;;;;;17.67;100.00;93871.38;5036308;28;20041;-88
2023/08/01 01:40:03;;;;;;;5.53;2.85;;;;;;;17.65;100.00;93868.28;5036867;28;20352;-87
2023/08/01 01:42:29;;;;;;;6.20;2.65;;;;;;;17.73;100.00;93856.06;5035186;28;20037;-87
2023/08/01 01:44:54;;;;;;;4.50;2.67;;;;;;;17.59;100.00;93851.00;5018773;28;20073;-87
2023/08/01 01:47:20;;;;;;;4.95;2.60;;;;;;;17.67;100.00;93847.53;5035298;28;20087;-88
2023/08/01 01:49:45;;;;;;;3.53;2.38;;;;;;;17.66;100.00;93848.63;5018676;28;20079;-87
2023/08/01 01:52:10;;;;;;;3.95;2.25;;;;;;;17.66;100.00;93856.56;5052306;28;20052;-88
2023/08/01 01:54:36;;;;;;;3.72;2.60;;;;;;;17.76;100.00;93857.25;5036190;28;20049;-87
2023/08/01 01:57:01;;;;;;;5.15;2.33;;;;;;;17.74;100.00;93854.16;5035533;28;20037;-87
2023/08/01 02:00:04;;;;;;;4.03;2.38;;;;;;;17.71;100.00;93855.56;5037901;28;20458;-87
2023/08/01 02:02:30;;;;;;;4.32;2.45;;;;;;;17.67;100.00;93850.19;5038597;28;20041;-87
2023/08/01 02:05:14;;;;;;;4.93;2.50;;;;;;;17.79;100.00;93853.97;5038855;28;20042;-87
2023/08/01 02:07:39;;;;;;;4.15;2.30;;;;;;;17.87;100.00;93855.75;5039594;28;20029;-87
2023/08/01 02:10:05;;;;;;;7.10;2.95;;;;;;;17.97;97.87;93851.16;5039045;28;20040;-87
2023/08/01 02:12:31;;;;;;;3.13;2.20;;;;;;;17.90;91.66;93852.47;5038517;28;20120;-88
2023/08/01 02:14:58;;;;;;;6.80;2.33;;;;;;;17.78;84.73;93853.19;5038787;28;20017;-87
2023/08/01 02:17:23;;;;;;;9.20;2.67;;;;;;;17.84;91.04;93848.47;5038416;28;20018;-87
2023/08/01 02:19:49;;;;;;;5.75;2.70;;;;;;;17.73;97.31;93844.66;5038420;28;20339;-87
2023/08/01 02:25:17;;;;;;;3.33;2.13;;;;;;;17.94;81.12;93842.78;5038712;28;20087;-87
2023/08/01 02:28:02;;;;;;;6.03;2.45;;;;;;;17.83;82.12;93843.50;5038570;28;20041;-87
2023/08/01 02:30:29;;;;;;;3.92;2.00;;;;;;;17.70;88.59;93845.31;5054604;28;20424;-88
2023/08/01 02:32:54;;;;;;;5.45;1.98;;;;;;;17.66;87.12;93840.69;5038453;28;20038;-88
2023/08/01 02:35:38;;;;;;;4.38;2.38;;;;;;;17.60;92.12;93834.03;5038388;28;20076;-87
2023/08/01 02:38:04;;;;;;;5.22;2.42;;;;;;;17.64;96.45;93829.63;5054911;28;20049;-87
2023/08/01 02:40:29;;;;;;;3.60;2.13;;;;;;;17.60;99.93;93828.72;5039488;28;20120;-87
2023/08/01 02:42:54;;;;;;;3.22;2.20;;;;;;;17.60;100.00;93826.06;5038515;28;20112;-87
2023/08/01 02:45:20;;;;;;;4.72;2.30;;;;;;;17.63;98.30;93822.00;5021822;28;20033;-87
2023/08/01 02:50:29;;;;;;;3.72;2.35;;;;;;;17.88;76.10;93822.09;5039296;28;20099;-87
2023/08/01 02:53:14;;;;;;;4.00;2.40;;;;;;;17.81;87.01;93825.28;5039647;28;20037;-87
2023/08/01 02:55:57;;;;;;;4.45;2.22;;;;;;;17.69;91.41;93817.28;5039900;28;20439;-87
2023/08/01 02:58:23;;;;;;;;;;;;;;;17.63;85.01;93806.88;5058016;28;20033;-87
2023/08/01 03:00:48;;;;;;;3.83;2.13;;;;;;;17.61;92.50;93809.06;5057590;28;20320;-87
2023/08/01 03:03:13;;;;;;;6.88;2.33;;;;;;;17.32;90.41;93810.72;5057859;28;20592;-87
2023/08/01 03:06:20;;;;;;;3.95;2.13;;;;;;;17.50;86.36;93814.00;5059575;28;20042;-87
2023/08/01 03:08:46;;;;;;;3.00;2.10;;;;;;;17.58;85.40;93819.56;5038202;28;20037;-88
2023/08/01 03:11:11;;;;;;;6.32;2.42;;;;;;;17.53;84.14;93816.00;5068444;28;20044;-87
2023/08/01 03:13:37;;;;;;;6.13;2.28;;;;;;;17.47;88.13;93811.22;5079026;28;20500;-88
2023/08/01 03:16:04;;;;;;;4.28;2.53;;;;;;;17.54;85.97;93816.78;5078306;28;20085;-88
2023/08/01 03:21:13;;;;;;;3.78;2.17;;;;;;;17.74;84.98;93817.88;5077369;28;20114;-87
2023/08/01 03:23:39;;;;;;;4.75;2.33;;;;;;;17.74;87.13;93820.50;5077689;28;20086;-87
2023/08/01 03:26:04;;;;;;;3.97;2.28;;;;;;;17.76;95.64;93820.16;5077359;28;20095;-87
2023/08/01 03:28:29;;;;;;;3.55;1.98;;;;;;;17.69;100.00;93815.41;5077406;28;20025;-87
2023/08/01 03:30:55;;;;;;;4.95;2.67;;;;;;;17.75;100.00;93814.09;5076714;28;20028;-87
2023/08/01 03:36:24;;;;;;;7.45;2.53;;;;;;;17.46;100.00;93821.06;5077366;28;20169;-87
2023/08/01 03:38:50;;;;;;;4.07;2.22;;;;;;;17.45;99.11;93813.44;5060592;28;20044;-87
2023/08/01 03:41:15;;;;;;;3.42;2.22;;;;;;;17.50;100.00;93807.91;5077248;28;20032;-88
2023/08/01 03:43:40;;;;;;;4.05;2.40;;;;;;;17.56;100.00;93811.94;5076838;28;20047;-87
2023/08/01 03:46:07;;;;;;;4.28;2.33;;;;;;;17.51;98.28;93810.25;5056997;28;20346;-88
2023/08/01 03:48:33;;;;;;;5.70;2.70;;;;;;;17.60;97.22;93810.19;5040389;28;20033;-87
2023/08/01 03:50:58;;;;;;;7.70;2.30;;;;;;;17.93;87.90;93812.06;5039862;28;20119;-88
2023/08/01 03:53:24;;;;;;;4.43;2.47;;;;;;;17.84;79.39;93808.72;5056950;28;20041;-87
2023/08/01 03:55:49;;;;;;;4.28;2.25;;;;;;;17.77;82.10;93814.56;5040400;28;20064;-88
2023/08/01 04:04:01;;;;;;;4.22;2.28;;;;;;;18.42;68.85;93817.81;5056303;28;20043;-88
2023/08/01 04:09:11;;;;;;;4.82;2.22;;;;;;;18.30;70.79;93797.34;5057592;28;20048;-88
2023/08/01 04:11:55;;;;;;;3.63;2.10;;;;;;;18.31;74.02;93796.25;5056536;28;20025;-88
2023/08/01 04:14:20;;;;;;;9.50;2.67;;;;;;;18.33;69.56;93792.19;5056204;28;20029;-87
2023/08/01 04:17:04;;;;;;;4.53;2.33;;;;;;;18.59;67.07;93792.94;5056018;28;20031;-88
2023/08/01 04:19:30;;;;;;;4.65;2.28;;;;;;;18.44;71.81;93779.25;5057327;28;20048;-87
2023/08/01 04:22:14;;;;;;;3.63;2.10;;;;;;;18.51;65.98;93778.69;5055170;28;20033;-87
2023/08/01 04:24:39;;;;;;;3.45;1.95;;;;;;;18.53;76.96;93771.16;5056908;28;20036;-88
2023/08/01 04:27:06;;;;;;;4.68;1.90;;;;;;;18.30;80.38;93760.22;5039170;28;20029;-88
2023/08/01 04:29:31;;;;;;;5.43;2.40;;;;;;;18.19;84.61;93758.00;5039016;28;20090;-88
2023/08/01 04:31:59;;;;;;;4.15;2.47;;;;;;;17.75;82.66;93747.09;5056259;28;20061;-88
2023/08/01 04:34:24;;;;;;;5.25;2.05;;;;;;;17.68;86.15;93755.56;5055325;28;20067;-87
2023/08/01 04:36:51;;;;;;;4.35;2.17;;;;;;;17.71;91.22;93749.63;5038329;28;20420;-87
2023/08/01 04:39:16;;;;;;;3.13;1.95;;;;;;;17.77;88.76;93750.97;5038415;28;20021;-87
2023/08/01 04:41:41;;;;;;;4.97;2.50;;;;;;;17.73;95.66;93755.38;5056091;28;20036;-87
2023/08/01 04:44:07;;;;;;;5.30;2.30;;;;;;;18.04;97.14;93756.78;5056505;28;20222;-87
2023/08/01 04:46:32;;;;;;;3.42;2.10;;;;;;;18.21;98.56;93742.53;5056431;28;20033;-87
2023/08/01 04:49:16;;;;;;;5.75;2.80;;;;;;;18.31;100.00;93744.00;5055422;28;20095;-86
2023/08/01 04:51:42;;;;;;;5.88;2.28;;;;;;;18.28;100.00;93731.38;5055332;28;20392;-88
2023/08/01 04:54:07;;;;;;;4.15;2.45;;;;;;;18.36;96.25;93741.13;5038626;28;20037;-87
2023/08/01 04:56:35;;;;;;;5.50;2.50;;;;;;;18.66;90.53;93737.47;5055439;28;20350;-88
2023/08/01 04:59:01;;;;;;;5.03;2.40;;;;;;;18.73;95.33;93739.56;5056496;28;20092;-87
2023/08/01 05:01:27;;;;;;;3.45;2.17;;;;;;;19.04;100.00;93744.25;5055595;28;20029;-87
2023/08/01 05:03:52;;;;;;;6.40;2.30;;;;;;;19.19;100.00;93744.66;5056923;28;20063;-87
2023/08/01 05:06:18;;;;;;;4.07;2.38;;;;;;;19.44;100.00;93752.53;5055358;28;20032;-87
2023/08/01 05:08:44;;;;;;;5.25;2.05;;;;;;;19.48;98.94;93746.22;5045263;28;20032;-90
2023/08/01 05:11:28;;;;;;;4.35;2.20;;;;;;;19.61;94.03;93740.84;5049448;28;20037;-90
2023/08/01 05:13:53;;;;;;;6.43;2.70;;;;;;;19.35;100.00;93742.06;5073415;28;20044;-92
2023/08/01 05:16:19;;;;;;;4.32;2.30;;;;;;;19.41;100.00;93743.34;5074396;28;20045;-93
2023/08/01 05:18:44;;;;;;;4.28;2.63;;;;;;;19.38;100.00;93741.38;5045670;28;20081;-91
2023/08/01 05:21:28;;;;;;;6.78;2.80;;;;;;;19.64;100.00;93742.81;5037546;28;20040;-90
2023/08/01 05:23:54;;;;;;;5.70;2.35;;;;;;;19.69;94.96;93739.91;5037701;28;20040;-92
2023/08/01 05:26:19;;;;;;;5.63;2.50;;;;;;;19.86;100.00;93732.72;5037414;28;20036;-91
2023/08/01 05:28:45;;;;;;;6.57;2.00;;;;;;;19.84;100.00;93740.28;5054272;28;20032;-91
2023/08/01 05:31:29;;;;;;;6.07;2.50;;;;;;;19.92;100.00;93734.81;5054766;28;20032;-90
2023/08/01 05:33:55;;;;;;;6.55;2.75;;;;;;;20.12;96.67;93728.81;5057146;28;20461;-92
2023/08/01 05:36:20;;;;;;;6.70;2.30;;;;;;;20.39;100.00;93734.38;5042336;28;20029;-90
2023/08/01 05:41:51;;;;;;;6.07;2.65;;;;;;;20.66;100.00;93735.41;5058283;28;20040;-91
2023/08/01 05:44:35;;;;;;;8.65;2.63;;;;;;;20.31;100.00;93726.25;5058014;28;20052;-91
2023/08/01 05:47:19;;;;;;;6.57;2.20;;;;;;;20.66;100.00;93715.97;5057830;28;20025;-90
2023/08/01 05:52:50;;;;;;;3.90;2.25;;;;;;;19.87;100.00;93713.78;5057730;28;20028;-91
2023/08/01 05:55:16;;;;;;;5.18;2.60;;;;;;;19.92;100.00;93715.44;5057880;28;20349;-91
2023/08/01 05:57:41;;;;;;;6.10;2.65;;;;;;;19.91;100.00;93714.63;5057636;28;20028;-90
2023/08/01 06:00:26;;;;;;;7.47;2.90;;;;;;;20.08;100.00;93718.09;5056977;28;20020;-90
2023/08/01 06:03:10;;;;;;;5.28;2.83;;;;;;;20.48;100.00;93725.09;5057290;28;20323;-91
2023/08/01 06:05:35;;;;;;;5.60;2.75;;;;;;;20.82;100.00;93732.72;5058782;28;20033;-90
2023/08/01 06:08:01;;;;;;;6.78;2.78;;;;;;;21.33;100.00;93713.19;5057921;28;20036;-91
2023/08/01 06:10:26;;;;;;;5.25;2.47;;;;;;;21.40;100.00;93717.13;5057428;28;20457;-90
2023/08/01 06:12:52;;;;;;;5.65;3.17;;;;;;;21.87;100.00;93715.28;5057928;28;20029;-90
2023/08/01 06:15:36;;;;;;;5.50;2.83;;;;;;;21.69;100.00;93723.00;5051560;28;20033;-90
2023/08/01 06:18:21;;;;;;;5.22;3.08;;;;;;;22.08;100.00;93712.19;5037354;28;20496;-91
2023/08/01 06:21:06;;;;;;;7.25;3.20;;;;;;;22.00;100.00;93711.31;5037253;28;20067;-89
2023/08/01 06:23:31;;;;;;;4.50;2.83;;;;;;;22.23;100.00;93717.75;5021209;28;20037;-91
2023/08/01 06:25:57;;;;;;;5.28;3.03;;;;;;;21.30;100.00;93718.44;5037653;28;20338;-92
2023/08/01 06:28:22;;;;;;;7.43;2.90;;;;;;;20.63;100.00;93717.44;5038356;28;20312;-91
2023/08/01 06:30:48;;;;;;;8.00;3.47;;;;;;;20.40;100.00;93709.31;5037194;28;20041;-92
2023/08/01 06:33:13;;;;;;;7.47;3.00;;;;;;;20.32;100.00;93708.41;5037690;28;20071;-91
2023/08/01 06:35:57;;;;;;;6.05;2.95;;;;;;;21.33;100.00;93718.50;5038485;28;20454;-91
2023/08/01 06:38:23;;;;;;;6.40;2.95;;;;;;;21.88;100.00;93714.19;5021998;28;20377;-90
2023/08/01 06:40:48;;;;;;;12.75;4.68;;;;;;;21.23;95.50;93697.78;5038472;28;20027;-91
2023/08/01 06:43:14;;;;;;;7.13;3.85;;;;;;;22.03;100.00;93707.97;5022338;28;20121;-91
2023/08/01 06:45:39;;;;;;;9.15;4.20;;;;;;;22.39;100.00;93701.63;5021486;28;20029;-90
2023/08/01 06:48:04;;;;;;;7.97;4.22;;;;;;;21.71;96.84;93699.41;5022045;28;20029;-91
2023/08/01 06:50:30;;;;;;;7.45;3.80;;;;;;;22.43;100.00;93705.88;5038790;28;20049;-90
2023/08/01 06:52:55;;;;;;;6.22;3.00;;;;;;;21.91;100.00;93694.03;5022163;28;20028;-91
2023/08/01 06:55:40;;;;;;;8.55;3.35;;;;;;;22.40;100.00;93701.28;5038010;28;20025;-92
2023/08/01 06:58:06;;;;;;;5.68;3.10;;;;;;;23.00;100.00;93699.03;5038051;28;20498;-91
2023/08/01 07:00:31;;;;;;;7.20;3.10;;;;;;;22.96;100.00;93701.66;5038560;28;20108;-90
2023/08/01 07:02:57;;;;;;;4.70;2.85;;;;;;;23.53;100.00;93708.03;5037858;28;20032;-91
2023/08/01 07:05:41;;;;;;;11.05;4.43;;;;;;;22.80;100.00;93701.06;5039172;28;20347;-90
2023/08/01 07:10:51;;;;;;;6.85;3.10;;;;;;;22.92;100.00;93681.38;5038961;28;20041;-91
2023/08/01 07:13:19;;;;;;;5.63;2.80;;;;;;;23.09;100.00;93670.13;5037910;28;20022;-91
2023/08/01 07:15:44;;;;;;;5.20;2.70;;;;;;;23.52;100.00;93661.81;5039293;28;20108;-90
2023/08/01 07:18:29;;;;;;;7.90;3.17;;;;;;;22.92;100.00;93662.69;5039931;28;20495;-90
2023/08/01 07:23:48;;;;;;;6.05;2.95;;;;;;;23.64;100.00;93668.81;5038519;28;20140;-92
2023/08/01 07:29:35;;;;;;;7.53;2.53;;;;;;;22.97;100.00;93665.81;5038813;28;20087;-92
2023/08/01 07:32:01;;;;;;;7.40;2.40;;;;;;;22.76;100.00;93658.31;5037096;28;20385;-90
2023/08/01 07:34:27;;;;;;;3.88;2.72;;;;;;;23.25;100.00;93667.28;5037623;28;20435;-90
2023/08/01 07:36:52;;;;;;;5.85;2.55;;;;;;;23.60;100.00;93659.22;5037321;28;20033;-90
2023/08/01 07:39:36;;;;;;;7.57;2.47;;;;;;;24.24;100.00;93669.72;5036056;28;20029;-89
2023/08/01 07:42:02;;;;;;;6.10;2.80;;;;;;;24.08;100.00;93667.28;5036944;28;20038;-89
2023/08/01 07:44:28;;;;;;;4.88;3.13;;;;;;;23.46;100.00;93667.91;5036704;28;20044;-89
2023/08/01 07:47:13;;;;;;;7.05;2.75;;;;;;;23.54;100.00;93678.28;5037355;28;20098;-89
2023/08/01 07:49:39;;;;;;;6.13;2.92;;;;;;;24.34;100.00;93664.81;5036422;28;20033;-89
2023/08/01 07:52:04;;;;;;;5.43;2.58;;;;;;;23.92;100.00;93672.88;5019428;28;20131;-89
2023/08/01 07:54:33;;;;;;;5.70;2.50;;;;;;;24.39;100.00;93675.16;5036123;28;20483;-90
2023/08/01 07:56:58;;;;;;;3.92;2.50;;;;;;;24.09;100.00;93684.13;5035830;28;20107;-89
2023/08/01 07:59:42;;;;;;;4.80;2.60;;;;;;;25.21;100.00;93682.09;5037120;28;20100;-90
2023/08/01 08:02:08;;;;;;;4.75;2.53;;;;;;;24.40;100.00;93676.69;5036592;28;20029;-90
2023/08/01 08:04:33;;;;;;;5.65;3.05;;;;;;;25.51;100.00;93680.28;5042891;28;20669;-90
2023/08/01 08:06:59;;;;;;;5.28;2.60;;;;;;;24.92;100.00;93676.63;5055380;28;20068;-89
2023/08/01 08:09:25;;;;;;;5.80;2.78;;;;;;;25.38;100.00;93679.84;5055352;28;20052;-90
2023/08/01 08:11:51;;;;;;;6.68;2.80;;;;;;;25.32;100.00;93676.78;5055406;28;20124;-89
2023/08/01 08:14:37;;;;;;;6.10;2.67;;;;;;;24.88;100.00;93672.38;5056082;28;20033;-89
2023/08/01 08:17:02;;;;;;;5.25;2.88;;;;;;;25.91;100.00;93672.28;5055547;28;20032;-89
2023/08/01 08:19:47;;;;;;;4.88;2.50;;;;;;;25.87;100.00;93664.25;5054541;28;20119;-89
2023/08/01 08:22:12;;;;;;;4.07;2.35;;;;;;;25.59;100.00;93657.69;5018939;28;20021;-89
2023/08/01 08:24:37;;;;;;;4.57;2.80;;;;;;;26.21;100.00;93661.22;5036304;28;20043;-88
2023/08/01 08:27:03;;;;;;;4.07;2.58;;;;;;;25.92;100.00;93671.94;5035118;28;20033;-89
2023/08/01 08:29:30;;;;;;;7.40;2.60;;;;;;;26.00;100.00;93675.38;5034690;28;20033;-89
2023/08/01 08:31:56;;;;;;;6.22;2.72;;;;;;;26.33;100.00;93665.41;5036447;28;20021;-88
2023/08/01 08:34:40;;;;;;;4.93;2.92;;;;;;;26.77;100.00;93666.09;5036303;28;20036;-89
2023/08/01 08:37:05;;;;;;;4.90;2.95;;;;;;;26.43;100.00;93660.41;5040891;28;20426;-88
2023/08/01 08:39:31;;;;;;;3.97;2.78;;;;;;;25.64;100.00;93661.91;5036273;28;20103;-89
2023/08/01 08:42:17;;;;;;;4.88;2.72;;;;;;;26.29;100.00;93666.56;5036616;28;20044;-88
2023/08/01 08:44:43;;;;;;;5.63;2.42;;;;;;;26.07;100.00;93677.28;5036420;28;20040;-88
2023/08/01 08:47:11;;;;;;;6.00;2.60;;;;;;;26.33;100.00;93676.16;5036084;28;20049;-89
2023/08/01 08:49:37;;;;;;;4.95;2.53;;;;;;;26.37;100.00;93662.72;5035755;28;20030;-89
2023/08/01 08:52:03;;;;;;;4.15;2.92;;;;;;;26.15;100.00;93656.59;5051543;28;20159;-88
2023/08/01 08:54:30;;;;;;;3.75;2.22;;;;;;;25.54;100.00;93655.41;5036165;28;20033;-89
2023/08/01 08:56:56;;;;;;;6.40;2.92;;;;;;;25.45;100.00;93657.63;5018200;28;20092;-83
2023/08/01 08:59:21;;;;;;;5.57;2.88;;;;;;;25.48;100.00;93656.91;5035252;28;20045;-89
2023/08/01 09:01:47;;;;;;;5.18;2.67;;;;;;;25.58;100.00;93652.72;5035795;28;20025;-87
2023/08/01 09:04:31;;;;;;;5.72;2.60;;;;;;;26.03;100.00;93663.09;5034873;28;20029;-87
2023/08/01 09:07:07;;;;;;;3.42;2.28;;;;;;;26.47;87.85;93658.47;5035861;28;20030;-86
2023/08/01 09:09:51;;;;;;;5.30;2.70;;;;;;;25.92;88.18;93655.81;5033547;28;20053;-87
2023/08/01 09:12:17;;;;;;;7.72;2.58;;;;;;;26.10;100.00;93655.81;5034430;28;20103;-87
2023/08/01 09:14:43;;;;;;;6.47;2.75;;;;;;;26.09;85.29;93662.31;5034670;28;20756;-87
2023/08/01 09:17:09;;;;;;;3.50;2.40;;;;;;;26.66;100.00;93654.59;5034657;28;20044;-87
2023/08/01 09:19:34;;;;;;;5.38;2.60;;;;;;;27.01;91.57;93646.84;5035382;28;20451;-87
2023/08/01 09:21:59;;;;;;;5.90;2.70;;;;;;;26.84;100.00;93649.19;5035413;28;20112;-87
2023/08/01 09:24:25;;;;;;;6.38;2.97;;;;;;;26.71;72.93;93653.44;5035785;28;20040;-87
2023/08/01 09:27:09;;;;;;;5.72;2.55;;;;;;;26.60;76.75;93645.41;5034386;28;20029;-87
2023/08/01 09:29:34;;;;;;;4.88;2.60;;;;;;;26.98;69.97;93634.94;5034961;28;20036;-86
2023/08/01 09:32:00;;;;;;;4.45;2.72;;;;;;;26.99;68.79;93641.09;5034106;28;20025;-87
2023/08/01 09:34:27;;;;;;;4.72;2.92;;;;;;;26.96;73.11;93642.63;5034265;28;20044;-87
2023/08/01 09:37:00;;;;;;;7.50;3.22;;;;;;;27.04;69.33;93640.69;5034175;28;20022;-88
2023/08/01 09:39:25;;;;;;;6.88;2.95;;;;;;;26.57;65.06;93633.53;5033477;28;20028;-86
2023/08/01 09:42:00;;;;;;;5.30;2.67;;;;;;;25.96;64.03;93637.81;5033413;28;20697;-85
2023/08/01 09:44:46;;;;;;;6.18;3.50;;;;;;;26.32;63.15;93628.19;5033636;28;20321;-85
2023/08/01 09:47:11;;;;;;;5.70;3.40;;;;;;;25.85;61.50;93628.97;5035017;28;20133;-85
2023/08/01 09:49:47;;;;;;;6.70;3.13;;;;;;;25.89;61.86;93623.63;5033451;28;20507;-84
2023/08/01 09:52:13;;;;;;;6.38;3.50;;;;;;;26.05;62.72;93629.34;5042475;28;20465;-85
2023/08/01 09:54:38;;;;;;;11.35;4.65;;;;;;;25.76;63.87;93621.31;5053478;28;20040;-85
2023/08/01 09:57:04;;;;;;;7.43;4.10;;;;;;;25.48;59.02;93624.72;5037241;28;20115;-84
2023/08/01 09:59:30;;;;;;;6.63;3.67;;;;;;;25.72;61.66;93614.41;5053194;28;20040;-85
2023/08/01 10:01:56;;;;;;;8.48;4.07;;;;;;;25.70;63.21;93612.13;5053202;28;20139;-85
2023/08/01 10:07:13;;;;;;;7.57;4.18;;;;;;;26.38;61.76;93626.66;5053385;28;20148;-85
2023/08/01 10:09:40;;;;;;;6.18;3.95;;;;;;;26.33;61.92;93619.75;5052464;28;20741;-84
2023/08/01 10:12:06;;;;;;;8.95;4.30;;;;;;;26.78;59.77;93615.78;5053041;28;20032;-86
2023/08/01 10:14:35;;;;;;;8.95;4.30;;;;;;;26.88;58.41;93601.59;5053177;28;20410;-86
2023/08/01 10:17:02;;;;;;;11.05;4.28;;;;;;;26.90;57.08;93607.34;5036866;28;20025;-86
2023/08/01 10:19:27;;;;;;;8.07;3.88;;;;;;;26.63;58.29;93615.09;5052344;28;20068;-86
2023/08/01 10:21:53;;;;;;;7.90;4.05;;;;;;;27.15;57.68;93614.53;5044924;28;20061;-86
2023/08/01 10:24:21;;;;;;;8.93;4.10;;;;;;;26.62;58.66;93611.63;5037151;28;20029;-91
2023/08/01 10:26:46;;;;;;;8.45;3.95;;;;;;;26.29;59.72;93594.84;5038061;28;20034;-90
2023/08/01 10:29:12;;;;;;;8.02;3.92;;;;;;;25.54;64.16;93589.13;5037273;28;20031;-91
2023/08/01 10:31:56;;;;;;;10.45;4.10;;;;;;;25.70;64.67;93590.66;5038794;28;20071;-92
2023/08/01 10:34:24;;;;;;;7.57;4.05;;;;;;;26.22;61.53;93586.78;5050827;28;20445;-90
2023/08/01 10:37:14;;;;;;;7.82;3.63;;;;;;;26.22;68.53;93576.84;5072601;28;20032;-93
2023/08/01 10:39:43;;;;;;;7.85;3.90;;;;;;;25.39;69.28;93568.75;5078302;28;20123;-92
2023/08/01 10:42:29;;;;;;;8.10;3.60;;;;;;;25.23;73.12;93569.91;5077604;28;20349;-90
2023/08/01 10:44:55;;;;;;;8.32;3.95;;;;;;;25.24;73.76;93562.63;5078071;28;20032;-91
2023/08/01 10:47:28;;;;;;;10.63;3.80;;;;;;;25.07;73.56;93572.16;5076769;28;20032;-89
2023/08/01 10:49:56;;;;;;;7.75;4.03;;;;;;;25.50;74.19;93571.50;5076951;28;20037;-88
2023/08/01 10:52:29;;;;;;;9.27;3.65;;;;;;;25.82;69.71;93574.19;5078107;28;20031;-90
2023/08/01 10:55:10;;;;;;;8.38;3.80;;;;;;;25.57;66.95;93578.78;5076732;28;20047;-91
2023/08/01 10:57:38;;;;;;;9.77;4.15;;;;;;;25.55;77.81;93576.47;5061402;28;20032;-92
2023/08/01 11:00:09;;;;;;;10.00;4.20;;;;;;;25.73;70.46;93570.34;5077632;28;20040;-90
2023/08/01 11:02:34;;;;;;;10.18;4.35;;;;;;;26.21;66.40;93561.88;5076573;28;20036;-88
2023/08/01 11:05:28;;;;;;;9.60;4.15;;;;;;;26.22;63.14;93560.72;5059987;28;20028;-90
2023/08/01 11:07:57;;;;;;;9.35;3.70;;;;;;;26.20;66.96;93564.94;5077676;28;20029;-91
2023/08/01 11:13:11;;;;;;;10.88;4.20;;;;;;;25.50;71.15;93564.22;5076613;28;20350;-90
2023/08/01 11:15:37;;;;;;;20.92;4.03;;;;;;;25.69;70.77;93586.47;5045244;28;20083;-89
2023/08/01 11:18:02;;;;;;;15.02;4.70;;;;;;;25.58;68.18;93577.63;5036919;28;20065;-88
2023/08/01 11:20:46;;;;;;;6.80;3.97;;;;;;;26.34;66.53;93572.97;5036859;28;20029;-89
2023/08/01 11:23:30;;;;;;;11.80;4.32;;;;;;;26.78;66.80;93588.94;5037519;28;20087;-89
2023/08/01 11:25:56;;;;;;;9.05;4.28;;;;;;;26.10;67.20;93586.00;5037656;28;20033;-88
2023/08/01 11:28:22;;;;;;;11.10;4.32;;;;;;;25.89;72.91;93584.13;5036455;28;20063;-91
2023/08/01 11:30:48;;;;;;;7.40;3.80;;;;;;;26.37;64.76;93587.53;5018872;28;20068;-88
2023/08/01 11:36:06;;;;;;;9.43;4.40;;;;;;;26.66;66.07;93579.38;5036693;28;20032;-90
2023/08/01 11:38:50;;;;;;;11.82;4.20;;;;;;;25.91;65.80;93576.47;5056699;28;20037;-87
2023/08/01 11:41:15;;;;;;;12.00;4.25;;;;;;;26.41;63.31;93571.44;5037157;28;20342;-88
2023/08/01 11:43:42;;;;;;;12.68;4.68;;;;;;;25.71;68.19;93535.88;5048278;28;20045;-89
2023/08/01 11:46:08;;;;;;;9.93;4.07;;;;;;;25.82;69.29;93546.59;5054517;28;20036;-89
2023/08/01 11:48:33;;;;;;;11.25;4.25;;;;;;;25.86;72.06;93550.03;5036101;28;20041;-88
2023/08/01 11:51:00;;;;;;;8.40;4.10;;;;;;;25.55;69.05;93546.97;5036151;28;20136;-92
2023/08/01 11:53:25;;;;;;;6.13;3.78;;;;;;;25.78;68.52;93538.53;5035471;28;20034;-88
2023/08/01 11:55:56;;;;;;;20.88;4.20;;;;;;;26.08;64.82;93545.38;5036195;28;20334;-92
2023/08/01 11:58:51;;;;;;;7.35;3.58;;;;;;;25.80;66.66;93560.38;5037459;28;20037;-91
2023/08/01 12:04:19;;;;;;;8.13;3.83;;;;;;;26.54;69.45;93551.06;5036021;28;20059;-92
2023/08/01 12:06:44;;;;;;;12.10;4.38;;;;;;;26.46;65.13;93542.22;5052279;28;20350;-90
2023/08/01 12:09:31;;;;;;;7.30;3.58;;;;;;;26.65;65.26;93543.69;5035718;28;20029;-90
2023/08/01 12:12:00;;;;;;;9.93;4.40;;;;;;;26.95;67.51;93538.97;5035769;28;20030;-91
2023/08/01 12:14:27;;;;;;;11.13;3.80;;;;;;;27.16;67.79;93540.78;5035823;28;20455;-90
2023/08/01 12:17:31;;;;;;;6.60;3.60;;;;;;;26.60;61.32;93552.16;5035190;28;20022;-92
2023/08/01 12:19:56;;;;;;;12.50;4.20;;;;;;;26.40;65.13;93538.44;5051446;28;20319;-91
2023/08/01 12:22:40;;;;;;;7.65;4.22;;;;;;;26.22;64.27;93546.53;5035110;28;20079;-90
2023/08/01 12:28:09;;;;;;;9.15;4.20;;;;;;;26.59;63.86;93542.56;5036214;28;20040;-90
2023/08/01 12:30:34;;;;;;;12.82;3.97;;;;;;;26.89;61.83;93540.53;5035180;28;20029;-90
2023/08/01 12:33:00;;;;;;;8.15;4.10;;;;;;;27.09;63.95;93525.44;5036116;28;20156;-85
2023/08/01 12:35:44;;;;;;;9.25;3.90;;;;;;;27.86;62.44;93532.97;5035661;28;20026;-85
2023/08/01 12:41:31;;;;;;;8.68;3.92;;;;;;;27.59;60.35;93525.50;5035354;28;20129;-84